Manassas, VA (20110)

6:25 PM EDT on August 30, 2014 (GMT -0400)
Beckford Grant | Change Station
CLOSE
Current Station
Personal Weather Station
Location: Manassas, VA
Elevation: 299 ft
Nearby Weather Stations

Elev 299 ft 38.75 °N, 77.46 °W | Updated 5 minutes ago

Mostly Cloudy
Mostly Cloudy
81.2 °F
Feels Like 86 °F
N
1.0
Wind Variable Wind from SE
Gusts 1.0 mph

Today
High -- | Low -- °F
--% Chance of Precip.
Yesterday
High -- | Low -- °F
Precip. -- in
6:37 AM 7:43 PM
Waxing Crescent, 25% visible
Pressure 30.11 in
Visibility 10.0 miles
Clouds Mostly Cloudy 4400 ft
Heat Index 86 °F
Dew Point 73 °F
Humidity 77%
Rainfall 0.00 in
Snow Depth Not available.
UV 1 out of 12
Pollen 9.30 out of 12
Ozone Good
PM2.5 Moderate
Flu Activity Not available.
METAR KHEF 302215Z 14007KT 10SM BKN044 28/23 A3011 RMK AO1

More Conditions Fewer Conditions

Pressure 30.11 in
Visibility 10.0 miles
Clouds Mostly Cloudy 4400 ft
Heat Index 86 °F
Dew Point 73 °F
Humidity 77%
Rainfall 0.00 in
Snow Depth Not available.
UV 1 out of 12
Pollen 9.30 out of 12
Ozone Good
PM2.5 Moderate
Flu Activity Not available.
METAR KHEF 302215Z 14007KT 10SM BKN044 28/23 A3011 RMK AO1

More Conditions Fewer Conditions

10-Day Weather Forecast

Almanac

Astronomy

Aug. 30, 2014 Rise Set
Actual Time 6:37 AM EDT 7:43 PM EDT
Civil Twilight 6:09 AM EDT 8:10 PM EDT
Nautical Twilight 5:37 AM EDT 8:42 PM EDT
Astronomical Twilight 5:03 AM EDT 9:16 PM EDT
Moon 11:19 AM EDT 10:19 PM EDT
Length of Visible Light 14h 00m
Length of Day
13h 05m
Tomorrow will be 2m 24s shorter.
Waxing Crescent, 25% of the Moon is Illuminated
Today
Waxing Crescent
Sep 2
First Quarter
Sep 8
Full
Sep 15
Last Quarter
Sep 24
New

Today's Extremes

State Highs State Lows

Community

WunderPhotos

Upload Photos

1,748,657 photos uploaded!

WunderBlogs® & News

Nearby

Air Quality

  Air Quality AQ Index Pollutant
Yesterday Good
OZONE
Yesterday Good
PM10
Current Moderate
PM2.5
Current Good
OZONE
Saturday Good
PM2.5
Saturday Good
OZONE
Sunday Moderate
PM2.5
Sunday Good
OZONE
Monday Moderate
PM2.5
Monday Good
OZONE
Tuesday Moderate
PM2.5
Tuesday Moderate
OZONE

Snow Depth

Station Depth Elevation
No new snow has been reported.

Earthquake Activity

City Distance Mag. Time & Date
No recent earthquake activity has been reported nearby.
Minimum magnitude displayed is 2.5.

Coastal Water Temperatures

Place Temperature
Washington, DC 80.1 °F
Lewisetta, VA 80.1 °F
Solomons Island, MD 79.0 °F

Nearby Weather Stations